Time;durP1;ratioP1;P1;durP2;ratioP2;P2;SDS_P1;SDS_P2;PMS_P1;PMS_P2;Temp;Humidity;BMP_temperature;BMP_pressure;BME280_temperature;BME280_humidity;BME280_pressure;Samples;Min_cycle;Max_cycle;Signal;HPM_P1;HPM_P2
2023/07/20 00:02:24;;;;;;;6.40;2.80;;;;;;;17.24;72.85;99945.20;105501;1263;97832;-80
2023/07/20 00:05:09;;;;;;;6.30;3.60;;;;;;;17.22;72.56;99939.75;106048;1258;96609;-80
2023/07/20 00:07:55;;;;;;;8.20;3.80;;;;;;;17.20;72.64;99935.34;105679;1258;97008;-81
2023/07/20 00:10:41;;;;;;;5.90;3.40;;;;;;;17.19;72.75;99933.65;105641;1261;100746;-79
2023/07/20 00:13:27;;;;;;;5.20;3.20;;;;;;;17.20;72.66;99931.75;105499;1257;100464;-79
2023/07/20 00:16:13;;;;;;;6.40;3.40;;;;;;;17.20;72.61;99930.84;105677;1256;97739;-79
2023/07/20 00:18:58;;;;;;;4.00;3.10;;;;;;;17.19;72.87;99929.09;105467;1264;96606;-79
2023/07/20 00:21:44;;;;;;;6.30;3.10;;;;;;;17.17;73.02;99931.21;105623;1265;97222;-79
2023/07/20 00:24:29;;;;;;;5.20;3.10;;;;;;;17.14;73.02;99928.89;105775;1257;101375;-79
2023/07/20 00:27:14;;;;;;;5.10;3.50;;;;;;;17.07;73.03;99931.43;105772;1257;100185;-78
2023/07/20 00:30:00;;;;;;;6.40;3.50;;;;;;;17.02;73.34;99932.15;105693;1261;99279;-80
2023/07/20 00:32:46;;;;;;;6.30;3.50;;;;;;;17.00;73.53;99926.11;105593;1260;96674;-79
2023/07/20 00:35:32;;;;;;;7.40;3.60;;;;;;;17.00;73.64;99921.73;105481;1263;98380;-79
2023/07/20 00:38:19;;;;;;;6.80;3.30;;;;;;;16.95;73.71;99921.21;105670;1257;100052;-79
2023/07/20 00:41:04;;;;;;;4.80;2.90;;;;;;;16.90;73.70;99923.56;105517;1257;99255;-79
2023/07/20 00:43:50;;;;;;;6.50;3.60;;;;;;;16.85;73.95;99920.39;105574;1257;99061;-78
2023/07/20 00:46:36;;;;;;;11.60;4.10;;;;;;;16.82;73.94;99915.30;105514;1257;96652;-80
2023/07/20 00:49:23;;;;;;;11.90;4.60;;;;;;;16.78;74.00;99914.37;105683;1260;97117;-79
2023/07/20 00:52:10;;;;;;;5.40;3.80;;;;;;;16.73;74.11;99913.64;107658;1257;101269;-80
2023/07/20 00:54:56;;;;;;;9.80;3.90;;;;;;;16.71;74.42;99912.67;106494;1257;99133;-80
2023/07/20 00:57:42;;;;;;;4.90;3.50;;;;;;;16.69;74.53;99907.77;105629;1257;99001;-78
2023/07/20 01:00:27;;;;;;;7.60;3.40;;;;;;;16.68;74.71;99903.11;107550;1260;96551;-80
2023/07/20 01:03:13;;;;;;;6.90;3.60;;;;;;;16.65;74.71;99892.44;105683;1257;97144;-79
2023/07/20 01:06:11;;;;;;;4.60;3.20;;;;;;;16.65;74.73;99893.98;105574;1263;100060;-80
2023/07/20 01:09:14;;;;;;;5.40;3.70;;;;;;;16.63;74.72;99904.20;105631;1257;99898;-78
2023/07/20 01:12:08;;;;;;;6.10;3.20;;;;;;;16.60;75.07;99913.16;105505;1257;97787;-80
2023/07/20 01:14:54;;;;;;;5.60;3.90;;;;;;;16.57;75.10;99917.21;105434;1263;97310;-78
2023/07/20 01:17:40;;;;;;;5.90;3.80;;;;;;;16.55;75.18;99922.15;105623;1260;97036;-80
2023/07/20 01:20:26;;;;;;;9.10;3.50;;;;;;;16.51;75.50;99926.89;105416;1263;101307;-79
2023/07/20 01:23:27;;;;;;;7.70;4.00;;;;;;;16.40;75.60;99928.70;105613;1257;100342;-80
2023/07/20 01:26:31;;;;;;;8.40;3.90;;;;;;;16.27;75.69;99921.04;105375;1261;97716;-79
2023/07/20 01:29:23;;;;;;;5.80;3.80;;;;;;;16.23;76.08;99925.95;105426;1260;96596;-79
2023/07/20 01:32:10;;;;;;;8.00;3.60;;;;;;;16.23;76.53;99922.95;105598;1261;98422;-79
2023/07/20 01:34:58;;;;;;;8.20;3.80;;;;;;;16.23;76.32;99921.65;105616;1263;99990;-79
2023/07/20 01:37:47;;;;;;;6.50;3.80;;;;;;;16.28;76.44;99917.27;105695;1263;99673;-78
2023/07/20 01:40:32;;;;;;;7.60;4.30;;;;;;;16.34;76.60;99916.04;105404;1258;97866;-80
2023/07/20 01:43:18;;;;;;;6.60;3.90;;;;;;;16.37;76.41;99910.32;105567;1261;96590;-78
2023/07/20 01:46:04;;;;;;;8.30;3.60;;;;;;;16.40;76.49;99910.05;105381;1261;98362;-80
2023/07/20 01:48:51;;;;;;;7.70;3.90;;;;;;;16.41;76.65;99921.48;105346;1261;100797;-80
2023/07/20 01:51:36;;;;;;;8.60;3.90;;;;;;;16.39;76.54;99925.98;105629;1262;99214;-81
2023/07/20 01:54:22;;;;;;;16.80;11.00;;;;;;;16.39;76.41;99931.60;105576;1262;98319;-81
2023/07/20 01:57:08;;;;;;;21.90;13.90;;;;;;;16.37;76.50;99930.05;105639;1257;96549;-79
2023/07/20 01:59:53;;;;;;;16.90;11.00;;;;;;;16.39;76.62;99926.69;105519;1258;97180;-78
2023/07/20 02:02:39;;;;;;;8.50;6.40;;;;;;;16.41;76.65;99927.81;105098;1257;100058;-79
2023/07/20 02:05:26;;;;;;;9.70;5.80;;;;;;;16.44;76.93;99929.75;105816;1257;99175;-80
2023/07/20 02:08:11;;;;;;;7.30;5.10;;;;;;;16.46;77.03;99920.55;105743;1263;98995;-80
2023/07/20 02:10:57;;;;;;;6.50;4.40;;;;;;;16.47;77.12;99914.91;105788;1262;97893;-80
2023/07/20 02:13:42;;;;;;;6.10;4.00;;;;;;;16.51;77.15;99912.77;105752;1263;97232;-80
2023/07/20 02:16:28;;;;;;;6.40;4.20;;;;;;;16.55;77.31;99914.69;105832;1260;100630;-79
2023/07/20 02:19:14;;;;;;;6.80;4.10;;;;;;;16.57;77.26;99909.39;105732;1273;107726;-79
2023/07/20 02:22:00;;;;;;;6.70;4.00;;;;;;;16.57;77.29;99913.55;105816;1257;97693;-80
2023/07/20 02:24:45;;;;;;;8.10;4.80;;;;;;;16.56;77.40;99916.92;105601;1257;96588;-80
2023/07/20 02:27:31;;;;;;;4.90;4.00;;;;;;;16.52;77.16;99913.57;105855;1257;97490;-81
2023/07/20 02:30:17;;;;;;;10.20;3.80;;;;;;;16.51;77.40;99910.14;105841;1260;100117;-78
2023/07/20 02:33:05;;;;;;;5.70;3.80;;;;;;;16.51;77.35;99908.50;105812;1261;99094;-80
2023/07/20 02:35:50;;;;;;;6.90;4.40;;;;;;;16.49;77.51;99911.80;105822;1260;97841;-79
2023/07/20 02:38:37;;;;;;;7.00;4.00;;;;;;;16.47;77.74;99912.63;106444;1257;96629;-81
2023/07/20 02:41:23;;;;;;;7.80;3.60;;;;;;;16.44;77.92;99912.88;106184;1264;96622;-80
2023/07/20 02:44:08;;;;;;;9.10;3.80;;;;;;;16.43;78.20;99913.25;106407;1257;101349;-81
2023/07/20 02:46:54;;;;;;;5.50;3.90;;;;;;;16.44;78.38;99911.60;106361;1261;100558;-81
2023/07/20 02:49:40;;;;;;;6.00;3.70;;;;;;;16.47;78.40;99911.74;105784;1258;98485;-79
2023/07/20 02:52:25;;;;;;;9.40;3.90;;;;;;;16.48;78.68;99908.98;105843;1257;96588;-79
2023/07/20 02:55:11;;;;;;;6.40;3.60;;;;;;;16.50;78.55;99905.35;105922;1256;96507;-82
2023/07/20 02:57:57;;;;;;;5.30;3.80;;;;;;;16.52;78.79;99907.67;105829;1259;101181;-79
2023/07/20 03:00:43;;;;;;;6.80;3.60;;;;;;;16.54;78.89;99914.73;106283;1256;99074;-80
2023/07/20 03:03:28;;;;;;;7.30;3.30;;;;;;;16.56;78.99;99916.61;106111;1256;100157;-81
2023/07/20 03:06:15;;;;;;;7.90;4.40;;;;;;;16.59;79.24;99920.02;106156;1264;96627;-80
2023/07/20 03:09:00;;;;;;;4.60;3.80;;;;;;;16.61;79.24;99918.38;106621;1256;95834;-81
2023/07/20 03:11:46;;;;;;;5.60;4.30;;;;;;;16.63;79.46;99922.42;106415;1258;99985;-79
2023/07/20 03:14:32;;;;;;;7.00;4.70;;;;;;;16.64;79.82;99935.10;105653;1270;101019;-78
2023/07/20 03:17:17;;;;;;;7.40;4.30;;;;;;;16.66;80.02;99935.40;105691;1260;98335;-80
2023/07/20 03:20:09;;;;;;;6.90;3.40;;;;;;;16.63;80.07;99930.86;105967;1260;96581;-78
2023/07/20 03:22:54;;;;;;;7.30;4.40;;;;;;;16.58;80.06;99932.70;105989;1260;97234;-80
2023/07/20 03:25:40;;;;;;;6.20;3.80;;;;;;;16.55;80.16;99939.26;105633;1260;101230;-78
2023/07/20 03:28:26;;;;;;;5.10;4.00;;;;;;;16.53;80.35;99943.86;105563;1260;99372;-81
2023/07/20 03:31:12;;;;;;;7.10;3.90;;;;;;;16.52;80.66;99948.77;105475;1259;98541;-80
2023/07/20 03:33:59;;;;;;;6.90;3.80;;;;;;;16.53;80.90;99955.81;105532;1263;97182;-78
2023/07/20 03:36:44;;;;;;;6.40;3.90;;;;;;;16.53;81.19;99960.03;105412;1255;97063;-78
2023/07/20 03:39:31;;;;;;;6.30;4.30;;;;;;;16.53;81.31;99959.27;105475;1260;99973;-80
2023/07/20 03:42:17;;;;;;;7.10;4.30;;;;;;;16.55;81.30;99969.37;105595;1261;108472;-79
2023/07/20 03:45:03;;;;;;;6.80;4.20;;;;;;;16.57;81.38;99978.00;105647;1260;97866;-80
2023/07/20 03:47:48;;;;;;;7.80;4.40;;;;;;;16.59;81.44;99989.45;105472;1258;97343;-79
2023/07/20 03:50:34;;;;;;;7.20;4.50;;;;;;;16.62;82.15;99997.64;105733;1256;97096;-78
2023/07/20 03:53:20;;;;;;;10.80;4.10;;;;;;;16.65;82.04;100005.27;105631;1260;101428;-80
2023/07/20 03:56:05;;;;;;;7.20;4.00;;;;;;;16.67;82.27;100015.84;106169;1258;100500;-80
2023/07/20 03:58:51;;;;;;;5.80;3.80;;;;;;;16.64;82.39;100028.34;106010;1257;99120;-80
2023/07/20 04:01:36;;;;;;;6.40;3.90;;;;;;;16.59;82.69;100045.66;106128;1257;96834;-79
2023/07/20 04:04:22;;;;;;;8.10;6.20;;;;;;;16.56;82.86;100054.56;105677;1260;97174;-79
2023/07/20 04:07:08;;;;;;;37.30;28.30;;;;;;;16.53;83.01;100050.39;105676;1256;99996;-78
2023/07/20 04:09:55;;;;;;;34.20;24.80;;;;;;;16.50;83.30;100043.81;105593;1256;99120;-80
2023/07/20 04:12:40;;;;;;;17.00;11.80;;;;;;;16.50;83.45;100045.73;105197;1262;99245;-79
2023/07/20 04:15:26;;;;;;;9.30;5.90;;;;;;;16.52;83.92;100044.95;105250;1257;96616;-79
2023/07/20 04:18:12;;;;;;;12.30;4.70;;;;;;;16.52;84.04;100041.50;105571;1257;96836;-79
2023/07/20 04:20:57;;;;;;;8.50;4.20;;;;;;;16.52;84.30;100040.96;105446;1256;101859;-79
2023/07/20 04:23:43;;;;;;;6.30;4.00;;;;;;;16.51;84.38;100043.02;105576;1256;100543;-78
2023/07/20 04:34:23;;;;;;;5.60;4.40;;;;;;;16.41;85.87;100042.80;102923;1292;636384;-80
2023/07/20 04:39:44;;;;;;;5.30;4.10;;;;;;;16.40;86.18;100039.86;102458;1291;635439;-78
2023/07/20 04:42:30;;;;;;;7.10;4.70;;;;;;;16.38;86.11;100036.34;104975;1269;95912;-80
2023/07/20 04:45:18;;;;;;;12.30;6.90;;;;;;;16.36;86.40;100040.27;104917;1271;96801;-82
2023/07/20 04:48:11;;;;;;;19.30;12.80;;;;;;;16.39;86.77;100039.78;106056;1260;105991;-81
2023/07/20 04:50:57;;;;;;;9.10;7.00;;;;;;;16.41;86.68;100037.55;106373;1259;99284;-83
2023/07/20 04:53:43;;;;;;;13.70;9.00;;;;;;;16.44;86.61;100036.92;106474;1252;109335;-80
2023/07/20 04:56:29;;;;;;;7.10;5.60;;;;;;;16.49;86.90;100038.16;105802;1258;96735;-80
2023/07/20 04:59:17;;;;;;;12.40;6.70;;;;;;;16.53;86.92;100041.42;105995;1254;95886;-81
2023/07/20 05:02:02;;;;;;;9.40;6.40;;;;;;;16.55;86.84;100044.37;105838;1257;97362;-82
2023/07/20 05:04:48;;;;;;;9.90;5.80;;;;;;;16.57;86.97;100048.26;106247;1257;99352;-77
2023/07/20 05:07:34;;;;;;;6.20;4.90;;;;;;;16.58;86.83;100048.05;106635;1257;97697;-81
2023/07/20 05:10:19;;;;;;;6.70;4.40;;;;;;;16.58;86.87;100046.64;106624;1253;97749;-78
2023/07/20 05:13:05;;;;;;;7.50;4.30;;;;;;;16.57;86.77;100047.59;105834;1253;97087;-79
2023/07/20 05:15:52;;;;;;;6.30;4.20;;;;;;;16.55;86.89;100043.24;105828;1256;100332;-79
2023/07/20 05:18:38;;;;;;;7.70;4.40;;;;;;;16.56;87.21;100037.96;107567;1257;100542;-79
2023/07/20 05:21:23;;;;;;;7.30;4.30;;;;;;;16.56;87.18;100040.16;105903;1266;99099;-79
2023/07/20 05:24:09;;;;;;;6.50;4.50;;;;;;;16.55;87.37;100043.73;105870;1253;96585;-79
2023/07/20 05:26:55;;;;;;;5.00;4.10;;;;;;;16.54;87.25;100041.08;105971;1253;96035;-80
2023/07/20 05:29:44;;;;;;;6.20;4.30;;;;;;;16.51;87.32;100040.66;106310;1258;99997;-79
2023/07/20 05:32:30;;;;;;;7.20;4.60;;;;;;;16.49;87.62;100041.19;105923;1253;99288;-79
2023/07/20 05:35:16;;;;;;;7.60;4.30;;;;;;;16.49;87.91;100036.91;105987;1257;99086;-79
2023/07/20 05:38:04;;;;;;;5.60;4.20;;;;;;;16.47;88.32;100036.54;105856;1253;97195;-80
2023/07/20 05:40:49;;;;;;;8.60;4.60;;;;;;;16.45;88.54;100034.65;106044;1257;95874;-78
2023/07/20 05:43:35;;;;;;;9.40;4.70;;;;;;;16.46;88.72;100032.14;105846;1257;98696;-80
2023/07/20 05:46:21;;;;;;;5.80;4.00;;;;;;;16.48;88.94;100032.26;106083;1253;99182;-81
2023/07/20 05:49:06;;;;;;;10.40;4.40;;;;;;;16.50;89.08;100027.67;106198;1253;97786;-79
2023/07/20 05:51:52;;;;;;;6.80;4.50;;;;;;;16.52;89.22;100028.81;106173;1257;95820;-80
2023/07/20 05:54:38;;;;;;;5.10;4.50;;;;;;;16.52;89.28;100025.11;105944;1252;95828;-80
2023/07/20 05:57:24;;;;;;;5.40;4.30;;;;;;;16.49;89.62;100024.83;105886;1259;98702;-79
2023/07/20 06:00:10;;;;;;;5.30;4.10;;;;;;;16.45;90.06;100029.81;105950;1258;100840;-80
2023/07/20 06:02:58;;;;;;;6.10;4.30;;;;;;;16.48;90.19;100030.93;105944;1268;97755;-80
2023/07/20 06:05:44;;;;;;;6.30;4.80;;;;;;;16.51;90.40;100034.61;105799;1256;95812;-81
2023/07/20 06:08:30;;;;;;;11.20;4.70;;;;;;;16.53;90.55;100034.82;105746;1257;96229;-80
2023/07/20 06:11:16;;;;;;;5.50;4.30;;;;;;;16.61;90.66;100034.27;106746;1257;100015;-80
2023/07/20 06:14:01;;;;;;;5.60;4.20;;;;;;;16.68;90.51;100027.98;106700;1253;109527;-79
2023/07/20 06:16:47;;;;;;;7.10;4.60;;;;;;;16.68;90.43;100018.52;106613;1256;99538;-80
2023/07/20 06:19:32;;;;;;;6.30;4.60;;;;;;;16.68;90.26;100014.73;106541;1258;97208;-78
2023/07/20 06:22:18;;;;;;;8.00;4.30;;;;;;;16.68;90.43;100015.44;106047;1257;96224;-81
2023/07/20 06:25:04;;;;;;;7.80;4.40;;;;;;;16.68;90.13;100016.15;105919;1258;98708;-81
2023/07/20 06:27:53;;;;;;;5.90;4.50;;;;;;;16.68;90.19;100015.48;106431;1258;99115;-79
2023/07/20 06:30:39;;;;;;;4.90;4.00;;;;;;;16.72;90.42;100016.11;106448;1256;97706;-80
2023/07/20 06:33:25;;;;;;;5.60;4.10;;;;;;;16.74;90.47;100012.47;106636;1258;95828;-79
2023/07/20 06:36:11;;;;;;;7.40;4.90;;;;;;;16.78;90.40;100011.40;106448;1256;96775;-81
2023/07/20 06:38:56;;;;;;;6.20;3.80;;;;;;;16.80;90.31;100018.31;106610;1255;99445;-82
2023/07/20 06:41:42;;;;;;;5.30;3.80;;;;;;;16.82;90.19;100024.48;106446;1255;99153;-79
2023/07/20 06:44:27;;;;;;;6.70;4.20;;;;;;;16.88;90.24;100029.23;106305;1258;99040;-80
2023/07/20 06:47:13;;;;;;;10.10;4.60;;;;;;;16.95;90.10;100026.55;106443;1257;95884;-80
2023/07/20 06:49:58;;;;;;;5.10;3.40;;;;;;;17.03;89.97;100021.73;106415;1257;96139;-81
2023/07/20 06:52:44;;;;;;;7.70;3.90;;;;;;;17.10;89.79;100020.73;106533;1258;98678;-80
2023/07/20 06:55:29;;;;;;;6.80;3.90;;;;;;;17.19;89.53;100017.97;106622;1254;100720;-80
2023/07/20 06:58:15;;;;;;;6.10;4.10;;;;;;;17.31;89.60;100020.45;105835;1256;97723;-80
2023/07/20 07:01:07;;;;;;;7.80;4.10;;;;;;;17.38;89.00;100016.56;105842;1258;95851;-81
2023/07/20 07:03:53;;;;;;;7.20;4.20;;;;;;;17.33;88.92;100014.38;106792;1257;96067;-82
2023/07/20 07:06:38;;;;;;;5.50;4.00;;;;;;;17.33;89.06;100023.75;106613;1256;98711;-81
2023/07/20 07:09:24;;;;;;;7.10;4.60;;;;;;;17.31;88.84;100025.11;106545;1254;99084;-81
2023/07/20 07:12:10;;;;;;;5.50;4.20;;;;;;;17.28;89.14;100028.05;106843;1255;97696;-82
2023/07/20 07:14:55;;;;;;;7.50;4.50;;;;;;;17.31;89.24;100030.48;106587;1257;96018;-81
2023/07/20 07:17:43;;;;;;;7.00;4.80;;;;;;;17.33;89.13;100036.75;106640;1258;95897;-84
2023/07/20 07:20:29;;;;;;;8.20;4.50;;;;;;;17.33;88.87;100042.26;108271;1257;98655;-82
2023/07/20 07:23:14;;;;;;;6.50;4.40;;;;;;;17.30;88.94;100042.16;106933;1256;99283;-80
2023/07/20 07:26:00;;;;;;;5.60;4.50;;;;;;;17.23;89.30;100042.40;106526;1253;99005;-81
2023/07/20 07:28:46;;;;;;;9.40;5.00;;;;;;;17.19;89.71;100048.00;106665;1257;95828;-81
2023/07/20 07:31:38;;;;;;;4.90;4.20;;;;;;;17.20;90.18;100053.98;106679;1256;95891;-80
2023/07/20 07:34:23;;;;;;;6.10;4.60;;;;;;;17.19;90.08;100058.08;106878;1252;98627;-80
2023/07/20 07:37:09;;;;;;;5.20;4.60;;;;;;;17.20;90.14;100061.89;106795;1257;99085;-79
2023/07/20 07:39:55;;;;;;;9.20;4.20;;;;;;;17.24;89.92;100067.80;106566;1256;98212;-81
2023/07/20 07:42:41;;;;;;;5.20;4.10;;;;;;;17.21;89.64;100070.95;106625;1254;95832;-79
2023/07/20 07:45:26;;;;;;;5.20;3.50;;;;;;;17.20;89.98;100072.83;106657;1254;95920;-80
2023/07/20 07:48:13;;;;;;;5.30;3.40;;;;;;;17.23;89.73;100069.69;106518;1259;98724;-79
2023/07/20 07:50:59;;;;;;;5.40;3.50;;;;;;;17.29;89.67;100070.78;105827;1256;100324;-79
2023/07/20 07:53:46;;;;;;;6.40;3.40;;;;;;;17.40;89.71;100070.10;105966;1258;97726;-80
2023/07/20 07:56:32;;;;;;;6.70;3.60;;;;;;;17.48;89.21;100071.88;105796;1269;95927;-80
2023/07/20 07:59:17;;;;;;;5.60;4.00;;;;;;;17.50;88.55;100079.85;105987;1257;95906;-78
2023/07/20 08:02:04;;;;;;;4.90;2.90;;;;;;;17.58;88.68;100086.60;105787;1259;100367;-80
2023/07/20 08:04:52;;;;;;;4.00;2.90;;;;;;;17.67;88.58;100090.88;105958;1257;99123;-80
2023/07/20 08:07:38;;;;;;;5.30;3.10;;;;;;;17.71;88.47;100099.45;105906;1258;98454;-80
2023/07/20 08:10:24;;;;;;;6.10;3.00;;;;;;;17.76;88.62;100104.41;105825;1254;95986;-81
2023/07/20 08:13:09;;;;;;;3.90;3.10;;;;;;;17.81;88.24;100098.96;105991;1255;95975;-80
2023/07/20 08:15:55;;;;;;;4.80;3.10;;;;;;;17.80;87.55;100098.52;105930;1254;99954;-80
2023/07/20 08:18:41;;;;;;;5.80;4.20;;;;;;;17.79;87.87;100099.80;106197;1254;100417;-80
2023/07/20 08:21:26;;;;;;;4.50;3.10;;;;;;;17.84;88.24;100103.01;106449;1254;99206;-80
2023/07/20 08:24:12;;;;;;;6.50;3.10;;;;;;;17.90;87.99;100109.23;106782;1256;95820;-79
2023/07/20 08:26:58;;;;;;;4.90;3.20;;;;;;;17.95;87.84;100112.25;106910;1258;95833;-82
2023/07/20 08:29:50;;;;;;;4.30;3.20;;;;;;;18.01;88.04;100112.18;106631;1254;98707;-80
2023/07/20 08:32:35;;;;;;;5.80;3.10;;;;;;;18.05;88.05;100112.79;106521;1268;100320;-80
2023/07/20 08:35:21;;;;;;;4.20;3.30;;;;;;;18.05;87.96;100112.36;106659;1257;98394;-80
2023/07/20 08:38:07;;;;;;;5.20;3.00;;;;;;;18.01;87.97;100113.02;106625;1255;95901;-79
2023/07/20 08:40:56;;;;;;;3.10;2.50;;;;;;;17.99;87.77;100116.06;106745;1257;95886;-82
2023/07/20 08:43:43;;;;;;;5.50;3.20;;;;;;;17.94;87.72;100112.60;106613;1254;100059;-81
2023/07/20 08:46:28;;;;;;;5.60;2.50;;;;;;;17.89;87.77;100114.77;106628;1254;100395;-80
2023/07/20 08:49:17;;;;;;;4.80;3.20;;;;;;;17.92;88.40;100116.80;105976;1254;97778;-80
2023/07/20 08:52:04;;;;;;;3.20;2.80;;;;;;;17.95;88.30;100117.46;105871;1261;95936;-80
2023/07/20 08:54:52;;;;;;;7.20;2.80;;;;;;;17.95;88.59;100118.75;105920;1259;95913;-80
2023/07/20 08:57:41;;;;;;;5.10;3.00;;;;;;;17.92;88.38;100120.23;105870;1255;99942;-81
2023/07/20 09:00:29;;;;;;;5.10;2.90;;;;;;;17.88;88.60;100124.60;106053;1260;100336;-79
2023/07/20 09:03:14;;;;;;;4.50;3.00;;;;;;;17.86;88.87;100126.18;106143;1259;97872;-82
2023/07/20 09:06:00;;;;;;;6.60;2.90;;;;;;;17.82;88.69;100125.64;105986;1254;95893;-80
2023/07/20 09:08:46;;;;;;;6.00;3.70;;;;;;;17.80;88.65;100125.11;106430;1257;95804;-83
2023/07/20 09:11:31;;;;;;;3.90;3.30;;;;;;;17.76;88.63;100124.02;106548;1254;99953;-84
2023/07/20 09:14:17;;;;;;;4.30;2.90;;;;;;;17.71;88.60;100122.91;106628;1260;99156;-84
2023/07/20 09:17:03;;;;;;;2.70;2.30;;;;;;;17.73;88.98;100122.28;106472;1254;97726;-84
2023/07/20 09:19:48;;;;;;;4.70;3.10;;;;;;;17.76;88.81;100128.34;106641;1254;96707;-88
2023/07/20 09:22:34;;;;;;;7.60;2.90;;;;;;;17.78;88.75;100131.75;106657;1254;96578;-92
2023/07/20 09:25:20;;;;;;;3.70;2.60;;;;;;;17.80;88.63;100129.11;106347;1254;100092;-88
2023/07/20 09:28:07;;;;;;;4.70;3.30;;;;;;;17.79;88.55;100126.73;106379;1257;100228;-86
2023/07/20 09:30:55;;;;;;;4.90;3.50;;;;;;;17.81;88.83;100127.59;106409;1254;97791;-83
2023/07/20 09:33:41;;;;;;;3.50;2.70;;;;;;;17.86;88.92;100130.76;106331;1260;96565;-88
2023/07/20 09:36:28;;;;;;;3.70;2.50;;;;;;;17.89;89.07;100132.11;106496;1258;96682;-84
2023/07/20 09:39:13;;;;;;;4.00;2.80;;;;;;;17.97;89.58;100128.38;106794;1254;101363;-81
2023/07/20 09:42:04;;;;;;;4.70;3.90;;;;;;;18.01;89.28;100128.77;106732;1257;99149;-81
2023/07/20 09:48:22;;;;;;;5.20;3.30;;;;;;;18.18;89.00;100123.24;106925;1256;96443;-92
2023/07/20 09:51:08;;;;;;;5.30;4.80;;;;;;;18.37;89.72;100121.70;106513;1256;97271;-88
2023/07/20 09:53:54;;;;;;;3.70;3.00;;;;;;;18.55;88.92;100118.24;106144;1258;101331;-83
2023/07/20 09:56:42;;;;;;;4.00;3.50;;;;;;;18.63;87.46;100116.61;106250;1258;100315;-84
2023/07/20 09:59:28;;;;;;;3.30;3.00;;;;;;;18.66;86.96;100113.19;106491;1260;106254;-82
2023/07/20 10:02:21;;;;;;;4.40;3.00;;;;;;;18.72;86.34;100117.52;106163;1258;96636;-83
2023/07/20 10:05:10;;;;;;;4.40;3.10;;;;;;;18.85;86.37;100117.06;106208;1258;97032;-82
2023/07/20 10:07:57;;;;;;;3.90;3.30;;;;;;;18.96;85.88;100115.09;106180;1261;100837;-82
2023/07/20 10:10:43;;;;;;;4.10;3.70;;;;;;;19.05;86.93;100112.86;106590;1257;99149;-86
2023/07/20 10:13:30;;;;;;;4.60;3.10;;;;;;;19.18;87.41;100111.88;106102;1257;98511;-86
2023/07/20 10:16:35;;;;;;;3.40;2.90;;;;;;;19.26;85.76;100108.92;106067;1261;96456;-85
2023/07/20 10:19:34;;;;;;;3.80;3.50;;;;;;;19.27;84.49;100112.02;106222;1258;95894;-86
2023/07/20 10:22:30;;;;;;;4.50;3.60;;;;;;;19.38;84.97;100111.86;106204;1258;101370;-86
2023/07/20 10:25:18;;;;;;;5.00;3.30;;;;;;;19.52;85.40;100104.19;106292;1260;99194;-88
2023/07/20 10:28:07;;;;;;;4.90;3.70;;;;;;;19.69;85.83;100102.05;106110;1258;97786;-86
2023/07/20 10:30:53;;;;;;;6.10;3.10;;;;;;;19.83;85.29;100098.98;106043;1261;96854;-86
2023/07/20 10:33:40;;;;;;;4.40;3.30;;;;;;;19.93;84.51;100086.06;106200;1263;96706;-85
2023/07/20 10:36:27;;;;;;;3.00;2.70;;;;;;;19.97;83.52;100082.45;106274;1259;101345;-87
2023/07/20 10:39:27;;;;;;;6.10;2.70;;;;;;;20.00;83.45;100081.27;106261;1260;99172;-87
2023/07/20 10:42:13;;;;;;;4.90;2.40;;;;;;;19.96;81.76;100086.41;106433;1260;99157;-86
2023/07/20 10:45:01;;;;;;;3.30;3.00;;;;;;;19.85;81.09;100086.98;106393;1255;96514;-85
2023/07/20 10:47:47;;;;;;;3.30;3.00;;;;;;;19.80;81.67;100088.19;106174;1258;97094;-85
2023/07/20 10:50:36;;;;;;;3.90;2.90;;;;;;;19.80;81.78;100092.52;106018;1260;101400;-86
2023/07/20 10:53:22;;;;;;;13.30;3.60;;;;;;;19.79;81.96;100088.62;106062;1257;99294;-86
2023/07/20 10:56:12;;;;;;;58.20;5.50;;;;;;;19.82;82.11;100090.06;106169;1263;97845;-85
2023/07/20 10:59:01;;;;;;;6.20;3.40;;;;;;;19.87;81.84;100088.46;106438;1258;96563;-86
2023/07/20 11:01:49;;;;;;;6.60;3.90;;;;;;;19.85;81.09;100084.88;106409;1257;97079;-86
2023/07/20 11:04:39;;;;;;;4.50;3.00;;;;;;;19.84;81.13;100081.98;106099;1257;100981;-85
2023/07/20 11:07:40;;;;;;;4.30;3.80;;;;;;;19.87;80.91;100082.27;106303;1261;99328;-88
2023/07/20 11:10:26;;;;;;;5.10;3.10;;;;;;;19.89;81.10;100083.41;106159;1258;98554;-86
2023/07/20 11:13:18;;;;;;;3.20;2.90;;;;;;;19.93;80.90;100082.26;106017;1263;96763;-87
2023/07/20 11:16:04;;;;;;;3.20;2.90;;;;;;;19.98;80.91;100071.70;106304;1257;97207;-87
2023/07/20 11:18:51;;;;;;;3.40;2.90;;;;;;;20.02;80.65;100071.02;106060;1263;100106;-85
2023/07/20 11:21:38;;;;;;;3.60;2.70;;;;;;;20.08;80.74;100069.05;106206;1259;100201;-86
2023/07/20 11:24:24;;;;;;;4.10;3.20;;;;;;;20.14;80.49;100073.59;106067;1262;98379;-86
2023/07/20 11:27:10;;;;;;;3.10;2.50;;;;;;;20.17;79.78;100076.22;106109;1257;96714;-86
2023/07/20 11:29:56;;;;;;;4.40;3.00;;;;;;;20.20;79.24;100074.80;106468;1259;95904;-87
2023/07/20 11:32:48;;;;;;;2.60;2.40;;;;;;;20.28;78.72;100072.31;106036;1260;100832;-86
2023/07/20 11:35:45;;;;;;;4.70;2.80;;;;;;;20.42;79.92;100064.67;106090;1257;99112;-86
2023/07/20 11:38:32;;;;;;;2.90;2.50;;;;;;;20.57;78.82;100070.78;106215;1261;97940;-86
2023/07/20 11:41:21;;;;;;;4.40;2.70;;;;;;;20.62;77.94;100073.59;106057;1258;97858;-86
2023/07/20 11:44:07;;;;;;;3.30;2.90;;;;;;;20.61;77.67;100078.48;106101;1258;97040;-85
2023/07/20 11:47:10;;;;;;;3.70;2.90;;;;;;;20.58;77.21;100080.91;106049;1258;100953;-86
2023/07/20 11:50:03;;;;;;;3.60;2.70;;;;;;;20.54;77.14;100080.56;105865;1261;99149;-85
2023/07/20 11:52:49;;;;;;;4.80;2.90;;;;;;;20.51;77.10;100080.77;105940;1261;97814;-85
2023/07/20 11:55:36;;;;;;;4.80;3.50;;;;;;;20.50;77.35;100078.42;106128;1259;96638;-84
2023/07/20 11:58:21;;;;;;;6.00;3.00;;;;;;;20.49;76.97;100079.12;106023;1263;96007;-85
2023/07/20 12:01:09;;;;;;;3.20;2.90;;;;;;;20.48;76.49;100077.92;106172;1261;100247;-85
2023/07/20 12:04:01;;;;;;;6.90;3.20;;;;;;;20.44;76.20;100080.47;106082;1261;99737;-85
2023/07/20 12:06:47;;;;;;;3.70;3.40;;;;;;;20.39;76.45;100081.20;106082;1260;97814;-84
2023/07/20 12:09:33;;;;;;;4.90;3.50;;;;;;;20.38;76.83;100081.67;105887;1261;96797;-84
2023/07/20 12:12:18;;;;;;;4.30;3.50;;;;;;;20.32;76.95;100083.65;106063;1259;96422;-84
2023/07/20 12:15:26;;;;;;;4.40;4.00;;;;;;;20.22;77.41;100083.73;106031;1259;101371;-85
2023/07/20 12:18:11;;;;;;;5.00;4.00;;;;;;;20.07;77.91;100084.42;106185;1256;99075;-84
2023/07/20 12:21:00;;;;;;;8.10;4.80;;;;;;;19.98;78.97;100086.16;105913;1256;99136;-84
2023/07/20 12:23:46;;;;;;;6.00;4.50;;;;;;;19.88;79.76;100075.80;105917;1261;96781;-84
2023/07/20 12:26:34;;;;;;;4.10;3.80;;;;;;;19.77;80.39;100062.73;105993;1258;96967;-84
2023/07/20 12:29:19;;;;;;;5.40;3.80;;;;;;;19.70;81.21;100054.80;105976;1258;100192;-84
2023/07/20 12:32:06;;;;;;;8.80;4.10;;;;;;;19.65;81.63;100052.57;106213;1256;100975;-84
2023/07/20 12:34:51;;;;;;;5.50;3.60;;;;;;;19.56;82.09;100054.27;105842;1261;97747;-84
2023/07/20 12:37:37;;;;;;;6.30;4.00;;;;;;;19.53;83.21;100044.31;105862;1261;97205;-83
2023/07/20 12:40:23;;;;;;;5.40;4.40;;;;;;;19.59;84.51;100035.45;106023;1259;97132;-84
2023/07/20 12:43:08;;;;;;;6.90;3.70;;;;;;;19.67;85.51;100028.19;106028;1260;100188;-85
2023/07/20 12:45:54;;;;;;;5.70;3.60;;;;;;;19.78;85.93;100023.70;105924;1258;99131;-84
2023/07/20 12:48:41;;;;;;;4.30;3.90;;;;;;;19.90;86.73;100024.83;105901;1260;97782;-83
2023/07/20 12:51:27;;;;;;;5.80;4.00;;;;;;;20.05;87.54;100025.46;105868;1261;96500;-85
2023/07/20 12:54:12;;;;;;;3.80;3.00;;;;;;;20.20;87.55;100025.48;105824;1257;96423;-85
2023/07/20 12:56:58;;;;;;;4.70;3.60;;;;;;;20.29;86.89;100025.15;105985;1261;100030;-85
2023/07/20 12:59:43;;;;;;;4.50;3.50;;;;;;;20.34;86.39;100028.38;106025;1260;99900;-85
2023/07/20 13:02:32;;;;;;;5.00;2.80;;;;;;;20.39;86.29;100026.62;105961;1258;97744;-85